This is the latest recevied weather packets stored in our database for station/object DL3CK-10. If no packets are shown the sender has not sent any weather packets the latest 10 day(s).
| Time | Temp. | Humidity | Pressure | Rain* | Wind** | Luminosity | Snow |
|---|---|---|---|---|---|---|---|
| 1788149781 | 64° F | 82% | 759.4 mmHg | 0 in | - | - | - |
| 1788146181 | 64° F | 80% | 759.9 mmHg | 0 in | - | - | - |
| 1788142583 | 64° F | 77% | 758.1 mmHg | 0 in | - | - | - |
| 1788138981 | 65° F | 76% | 758.5 mmHg | 0 in | - | - | - |
| 1788135381 | 66° F | 75% | 758.9 mmHg | 0 in | - | - | - |
| 1788131782 | 67° F | 73% | 759.1 mmHg | 0 in | - | - | - |
| 1788128182 | 68° F | 71% | 759.4 mmHg | 0 in | - | - | - |
| 1788124582 | 70° F | 67% | 759.5 mmHg | 0 in | - | - | - |
| 1788120982 | 72° F | 64% | 759.6 mmHg | 0 in | - | - | - |
| 1788117382 | 75° F | 59% | 759.6 mmHg | 0 in | - | - | - |
| 1788113782 | 77° F | 55% | 759.4 mmHg | 0 in | - | - | - |
| 1788110182 | 81° F | 50% | 759 mmHg | 0 in | - | - | - |
| 1788106582 | 82° F | 49% | 758.8 mmHg | 0 in | - | - | - |
| 1788102982 | 84° F | 46% | 759.1 mmHg | 0 in | - | - | - |
| 1788099382 | 83° F | 48% | 759.1 mmHg | 0 in | - | - | - |
| 1788095782 | 82° F | 48% | 759.6 mmHg | 0 in | - | - | - |
| 1788092182 | 84° F | 48% | 759.9 mmHg | 0 in | - | - | - |
| 1788088582 | 83° F | 48% | 760.2 mmHg | 0 in | - | - | - |
| 1788084983 | 81° F | 50% | 760.3 mmHg | 0 in | - | - | - |
| 1788081383 | 79° F | 53% | 760.5 mmHg | 0 in | - | - | - |
| 1788077783 | 77° F | 59% | 760.6 mmHg | 0 in | - | - | - |
| 1788074183 | 68° F | 71% | 760.6 mmHg | 0 in | - | - | - |
| 1788070583 | 65° F | 76% | 760.6 mmHg | 0 in | - | - | - |
| 1788066983 | 64° F | 76% | 760.5 mmHg | 0 in | - | - | - |
| 1788063383 | 63° F | 76% | 760.3 mmHg | 0 in | - | - | - |
* Rain latest hour (hover to see other rain measurements)
** Current wind speed in m/s (hover to see current wind gust speed)